sensor_id;sensor_type;location;lat;lon;timestamp;P1;durP1;ratioP1;P2;durP2;ratioP2
50789;SDS011;37287;47.554;7.844;2023-10-31T00:02:15;2.47;;;1.20;;
50789;SDS011;37287;47.554;7.844;2023-10-31T00:04:43;2.42;;;0.90;;
50789;SDS011;37287;47.554;7.844;2023-10-31T00:07:10;1.92;;;0.85;;
50789;SDS011;37287;47.554;7.844;2023-10-31T00:09:36;1.65;;;1.00;;
50789;SDS011;37287;47.554;7.844;2023-10-31T00:12:09;2.55;;;0.95;;
50789;SDS011;37287;47.554;7.844;2023-10-31T00:14:36;1.38;;;1.02;;
50789;SDS011;37287;47.554;7.844;2023-10-31T00:17:03;1.10;;;0.82;;
50789;SDS011;37287;47.554;7.844;2023-10-31T00:19:31;3.20;;;0.80;;
50789;SDS011;37287;47.554;7.844;2023-10-31T00:21:58;1.08;;;0.63;;
50789;SDS011;37287;47.554;7.844;2023-10-31T00:24:25;1.92;;;0.80;;
50789;SDS011;37287;47.554;7.844;2023-10-31T00:27:00;3.70;;;0.70;;
50789;SDS011;37287;47.554;7.844;2023-10-31T00:29:26;0.52;;;0.45;;
50789;SDS011;37287;47.554;7.844;2023-10-31T00:31:53;1.33;;;0.50;;
50789;SDS011;37287;47.554;7.844;2023-10-31T00:34:24;1.60;;;0.70;;
50789;SDS011;37287;47.554;7.844;2023-10-31T00:36:50;0.80;;;0.73;;
50789;SDS011;37287;47.554;7.844;2023-10-31T00:39:17;3.30;;;0.63;;
50789;SDS011;37287;47.554;7.844;2023-10-31T00:41:45;1.52;;;0.75;;
50789;SDS011;37287;47.554;7.844;2023-10-31T00:44:15;0.95;;;0.68;;
50789;SDS011;37287;47.554;7.844;2023-10-31T00:46:44;1.05;;;0.50;;
50789;SDS011;37287;47.554;7.844;2023-10-31T00:49:11;1.13;;;0.40;;
50789;SDS011;37287;47.554;7.844;2023-10-31T00:51:37;2.40;;;0.90;;
50789;SDS011;37287;47.554;7.844;2023-10-31T00:54:04;1.52;;;0.63;;
50789;SDS011;37287;47.554;7.844;2023-10-31T00:56:33;1.45;;;0.90;;
50789;SDS011;37287;47.554;7.844;2023-10-31T00:59:01;1.30;;;0.85;;
50789;SDS011;37287;47.554;7.844;2023-10-31T01:01:27;3.58;;;1.17;;
50789;SDS011;37287;47.554;7.844;2023-10-31T01:03:56;2.63;;;1.23;;
50789;SDS011;37287;47.554;7.844;2023-10-31T01:06:23;1.90;;;1.10;;
50789;SDS011;37287;47.554;7.844;2023-10-31T01:08:49;1.08;;;0.85;;
50789;SDS011;37287;47.554;7.844;2023-10-31T01:11:17;1.25;;;0.85;;
50789;SDS011;37287;47.554;7.844;2023-10-31T01:13:44;2.33;;;1.02;;
50789;SDS011;37287;47.554;7.844;2023-10-31T01:16:11;3.70;;;0.90;;
50789;SDS011;37287;47.554;7.844;2023-10-31T01:18:38;2.90;;;1.25;;
50789;SDS011;37287;47.554;7.844;2023-10-31T01:21:05;1.33;;;0.90;;
50789;SDS011;37287;47.554;7.844;2023-10-31T01:23:31;2.75;;;1.27;;
50789;SDS011;37287;47.554;7.844;2023-10-31T01:25:58;4.00;;;1.10;;
50789;SDS011;37287;47.554;7.844;2023-10-31T01:28:29;2.05;;;1.00;;
50789;SDS011;37287;47.554;7.844;2023-10-31T01:30:55;1.65;;;0.60;;
50789;SDS011;37287;47.554;7.844;2023-10-31T01:33:24;1.38;;;0.88;;
50789;SDS011;37287;47.554;7.844;2023-10-31T01:35:51;0.90;;;0.77;;
50789;SDS011;37287;47.554;7.844;2023-10-31T01:38:18;1.13;;;0.60;;
50789;SDS011;37287;47.554;7.844;2023-10-31T01:40:50;1.08;;;1.00;;
50789;SDS011;37287;47.554;7.844;2023-10-31T01:43:33;3.08;;;1.33;;
50789;SDS011;37287;47.554;7.844;2023-10-31T01:46:07;1.50;;;0.80;;
50789;SDS011;37287;47.554;7.844;2023-10-31T01:48:33;2.10;;;0.93;;
50789;SDS011;37287;47.554;7.844;2023-10-31T01:51:01;2.42;;;0.50;;
50789;SDS011;37287;47.554;7.844;2023-10-31T01:53:32;3.00;;;0.90;;
50789;SDS011;37287;47.554;7.844;2023-10-31T01:56:00;1.42;;;0.80;;
50789;SDS011;37287;47.554;7.844;2023-10-31T01:58:28;1.30;;;0.80;;
50789;SDS011;37287;47.554;7.844;2023-10-31T02:01:00;1.35;;;0.75;;
50789;SDS011;37287;47.554;7.844;2023-10-31T02:03:27;0.82;;;0.57;;
50789;SDS011;37287;47.554;7.844;2023-10-31T02:05:54;1.92;;;0.80;;
50789;SDS011;37287;47.554;7.844;2023-10-31T02:08:22;0.90;;;0.73;;
50789;SDS011;37287;47.554;7.844;2023-10-31T02:10:49;2.30;;;0.68;;
50789;SDS011;37287;47.554;7.844;2023-10-31T02:13:16;0.82;;;0.50;;
50789;SDS011;37287;47.554;7.844;2023-10-31T02:15:44;1.33;;;0.80;;
50789;SDS011;37287;47.554;7.844;2023-10-31T02:18:13;1.02;;;0.80;;
50789;SDS011;37287;47.554;7.844;2023-10-31T02:20:40;1.20;;;0.50;;
50789;SDS011;37287;47.554;7.844;2023-10-31T02:23:07;2.72;;;1.25;;
50789;SDS011;37287;47.554;7.844;2023-10-31T02:25:34;3.38;;;0.77;;
50789;SDS011;37287;47.554;7.844;2023-10-31T02:28:01;3.03;;;1.10;;
50789;SDS011;37287;47.554;7.844;2023-10-31T02:30:30;3.78;;;1.25;;
50789;SDS011;37287;47.554;7.844;2023-10-31T02:32:56;7.25;;;1.17;;
50789;SDS011;37287;47.554;7.844;2023-10-31T02:35:23;1.20;;;0.88;;
50789;SDS011;37287;47.554;7.844;2023-10-31T02:37:50;2.95;;;1.00;;
50789;SDS011;37287;47.554;7.844;2023-10-31T02:40:16;1.27;;;0.93;;
50789;SDS011;37287;47.554;7.844;2023-10-31T02:42:43;1.35;;;0.80;;
50789;SDS011;37287;47.554;7.844;2023-10-31T02:45:16;1.92;;;1.13;;
50789;SDS011;37287;47.554;7.844;2023-10-31T02:47:43;1.90;;;1.30;;
50789;SDS011;37287;47.554;7.844;2023-10-31T02:50:10;3.17;;;1.08;;
50789;SDS011;37287;47.554;7.844;2023-10-31T02:52:38;1.60;;;0.93;;
50789;SDS011;37287;47.554;7.844;2023-10-31T02:55:05;1.60;;;0.90;;
50789;SDS011;37287;47.554;7.844;2023-10-31T02:57:35;2.63;;;0.77;;
50789;SDS011;37287;47.554;7.844;2023-10-31T03:00:02;1.42;;;0.73;;
50789;SDS011;37287;47.554;7.844;2023-10-31T03:02:30;1.70;;;0.90;;
50789;SDS011;37287;47.554;7.844;2023-10-31T03:04:57;2.45;;;0.80;;
50789;SDS011;37287;47.554;7.844;2023-10-31T03:07:24;2.65;;;0.90;;
50789;SDS011;37287;47.554;7.844;2023-10-31T03:09:51;4.32;;;1.00;;
50789;SDS011;37287;47.554;7.844;2023-10-31T03:12:17;1.20;;;0.80;;
50789;SDS011;37287;47.554;7.844;2023-10-31T03:14:44;3.28;;;0.77;;
50789;SDS011;37287;47.554;7.844;2023-10-31T03:17:11;0.82;;;0.57;;
50789;SDS011;37287;47.554;7.844;2023-10-31T03:19:37;2.15;;;0.70;;
50789;SDS011;37287;47.554;7.844;2023-10-31T03:22:08;1.35;;;0.75;;
50789;SDS011;37287;47.554;7.844;2023-10-31T03:24:35;1.70;;;1.33;;
50789;SDS011;37287;47.554;7.844;2023-10-31T03:27:02;4.15;;;0.80;;
50789;SDS011;37287;47.554;7.844;2023-10-31T03:29:30;1.05;;;0.70;;
50789;SDS011;37287;47.554;7.844;2023-10-31T03:31:56;0.85;;;0.80;;
50789;SDS011;37287;47.554;7.844;2023-10-31T03:34:25;3.85;;;0.80;;
50789;SDS011;37287;47.554;7.844;2023-10-31T03:36:54;4.60;;;0.73;;
50789;SDS011;37287;47.554;7.844;2023-10-31T03:39:21;1.00;;;0.70;;
50789;SDS011;37287;47.554;7.844;2023-10-31T03:41:47;1.58;;;0.70;;
50789;SDS011;37287;47.554;7.844;2023-10-31T03:44:18;2.78;;;0.85;;
50789;SDS011;37287;47.554;7.844;2023-10-31T03:46:45;2.03;;;1.02;;
50789;SDS011;37287;47.554;7.844;2023-10-31T03:49:11;3.15;;;0.98;;
50789;SDS011;37287;47.554;7.844;2023-10-31T03:51:40;1.38;;;0.70;;
50789;SDS011;37287;47.554;7.844;2023-10-31T03:54:07;1.63;;;0.70;;
50789;SDS011;37287;47.554;7.844;2023-10-31T03:56:39;0.68;;;0.68;;
50789;SDS011;37287;47.554;7.844;2023-10-31T03:59:07;1.95;;;0.70;;
50789;SDS011;37287;47.554;7.844;2023-10-31T04:01:34;2.00;;;0.68;;
50789;SDS011;37287;47.554;7.844;2023-10-31T04:04:00;0.75;;;0.60;;
50789;SDS011;37287;47.554;7.844;2023-10-31T04:06:29;1.50;;;0.70;;
50789;SDS011;37287;47.554;7.844;2023-10-31T04:08:58;1.00;;;0.55;;
50789;SDS011;37287;47.554;7.844;2023-10-31T04:11:25;1.30;;;0.65;;
50789;SDS011;37287;47.554;7.844;2023-10-31T04:13:51;1.02;;;0.57;;
50789;SDS011;37287;47.554;7.844;2023-10-31T04:16:18;1.13;;;0.60;;
50789;SDS011;37287;47.554;7.844;2023-10-31T04:18:44;1.20;;;0.55;;
50789;SDS011;37287;47.554;7.844;2023-10-31T04:21:18;0.68;;;0.60;;
50789;SDS011;37287;47.554;7.844;2023-10-31T04:23:44;1.50;;;0.43;;
50789;SDS011;37287;47.554;7.844;2023-10-31T04:26:11;1.23;;;0.52;;
50789;SDS011;37287;47.554;7.844;2023-10-31T04:28:38;1.23;;;0.68;;
50789;SDS011;37287;47.554;7.844;2023-10-31T04:31:05;0.55;;;0.55;;
50789;SDS011;37287;47.554;7.844;2023-10-31T04:33:32;1.13;;;0.52;;
50789;SDS011;37287;47.554;7.844;2023-10-31T04:35:59;2.83;;;0.70;;
50789;SDS011;37287;47.554;7.844;2023-10-31T04:38:27;1.08;;;0.73;;
50789;SDS011;37287;47.554;7.844;2023-10-31T04:40:53;1.25;;;0.85;;
50789;SDS011;37287;47.554;7.844;2023-10-31T04:43:22;1.38;;;0.88;;
50789;SDS011;37287;47.554;7.844;2023-10-31T04:45:50;1.40;;;0.90;;
50789;SDS011;37287;47.554;7.844;2023-10-31T04:48:17;1.35;;;0.98;;
50789;SDS011;37287;47.554;7.844;2023-10-31T04:50:44;0.88;;;0.77;;
50789;SDS011;37287;47.554;7.844;2023-10-31T04:53:13;1.77;;;1.10;;
50789;SDS011;37287;47.554;7.844;2023-10-31T04:55:39;1.08;;;0.85;;
50789;SDS011;37287;47.554;7.844;2023-10-31T04:58:08;1.65;;;0.90;;
50789;SDS011;37287;47.554;7.844;2023-10-31T05:00:35;1.63;;;0.80;;
50789;SDS011;37287;47.554;7.844;2023-10-31T05:03:01;2.60;;;0.90;;
50789;SDS011;37287;47.554;7.844;2023-10-31T05:05:33;1.42;;;0.90;;
50789;SDS011;37287;47.554;7.844;2023-10-31T05:08:00;1.00;;;0.90;;
50789;SDS011;37287;47.554;7.844;2023-10-31T05:10:26;3.80;;;1.00;;
50789;SDS011;37287;47.554;7.844;2023-10-31T05:12:55;2.13;;;0.73;;
50789;SDS011;37287;47.554;7.844;2023-10-31T05:15:23;1.23;;;0.80;;
50789;SDS011;37287;47.554;7.844;2023-10-31T05:17:50;5.30;;;0.98;;
50789;SDS011;37287;47.554;7.844;2023-10-31T05:20:16;3.00;;;0.90;;
50789;SDS011;37287;47.554;7.844;2023-10-31T05:22:43;2.40;;;1.00;;
50789;SDS011;37287;47.554;7.844;2023-10-31T05:25:09;1.17;;;0.80;;
50789;SDS011;37287;47.554;7.844;2023-10-31T05:27:36;0.93;;;0.70;;
50789;SDS011;37287;47.554;7.844;2023-10-31T05:30:03;1.50;;;0.75;;
50789;SDS011;37287;47.554;7.844;2023-10-31T05:32:30;3.55;;;0.80;;
50789;SDS011;37287;47.554;7.844;2023-10-31T05:34:57;2.75;;;0.90;;
50789;SDS011;37287;47.554;7.844;2023-10-31T05:37:25;0.88;;;0.60;;
50789;SDS011;37287;47.554;7.844;2023-10-31T05:39:52;1.10;;;0.73;;
50789;SDS011;37287;47.554;7.844;2023-10-31T05:42:25;2.00;;;0.77;;
50789;SDS011;37287;47.554;7.844;2023-10-31T05:44:54;3.22;;;0.52;;
50789;SDS011;37287;47.554;7.844;2023-10-31T05:47:25;3.53;;;0.82;;
50789;SDS011;37287;47.554;7.844;2023-10-31T05:49:54;2.05;;;0.70;;
50789;SDS011;37287;47.554;7.844;2023-10-31T05:52:20;1.77;;;1.05;;
50789;SDS011;37287;47.554;7.844;2023-10-31T05:54:47;2.33;;;0.68;;
50789;SDS011;37287;47.554;7.844;2023-10-31T05:57:15;2.15;;;0.80;;
50789;SDS011;37287;47.554;7.844;2023-10-31T05:59:42;4.93;;;0.55;;
50789;SDS011;37287;47.554;7.844;2023-10-31T06:02:08;2.22;;;0.60;;
50789;SDS011;37287;47.554;7.844;2023-10-31T06:04:38;3.47;;;1.08;;
50789;SDS011;37287;47.554;7.844;2023-10-31T06:07:04;1.50;;;0.88;;
50789;SDS011;37287;47.554;7.844;2023-10-31T06:09:33;2.28;;;0.90;;
50789;SDS011;37287;47.554;7.844;2023-10-31T06:12:01;6.32;;;1.17;;
50789;SDS011;37287;47.554;7.844;2023-10-31T06:14:28;2.10;;;0.70;;
50789;SDS011;37287;47.554;7.844;2023-10-31T06:16:55;2.50;;;1.08;;
50789;SDS011;37287;47.554;7.844;2023-10-31T06:19:23;2.90;;;0.90;;
50789;SDS011;37287;47.554;7.844;2023-10-31T06:21:50;1.38;;;1.02;;
50789;SDS011;37287;47.554;7.844;2023-10-31T06:24:16;3.22;;;1.10;;
50789;SDS011;37287;47.554;7.844;2023-10-31T06:26:43;1.40;;;0.82;;
50789;SDS011;37287;47.554;7.844;2023-10-31T06:29:09;1.10;;;0.98;;
50789;SDS011;37287;47.554;7.844;2023-10-31T06:31:56;2.17;;;0.90;;
50789;SDS011;37287;47.554;7.844;2023-10-31T06:34:29;2.72;;;1.00;;
50789;SDS011;37287;47.554;7.844;2023-10-31T06:36:56;2.25;;;0.90;;
50789;SDS011;37287;47.554;7.844;2023-10-31T06:39:22;1.70;;;0.82;;
50789;SDS011;37287;47.554;7.844;2023-10-31T06:41:55;2.47;;;0.90;;
50789;SDS011;37287;47.554;7.844;2023-10-31T06:44:22;2.42;;;1.70;;
50789;SDS011;37287;47.554;7.844;2023-10-31T06:46:48;3.40;;;2.35;;
50789;SDS011;37287;47.554;7.844;2023-10-31T06:49:16;5.25;;;3.60;;
50789;SDS011;37287;47.554;7.844;2023-10-31T06:51:45;4.10;;;2.38;;
50789;SDS011;37287;47.554;7.844;2023-10-31T06:54:12;4.80;;;2.40;;
50789;SDS011;37287;47.554;7.844;2023-10-31T06:56:39;3.58;;;2.00;;
50789;SDS011;37287;47.554;7.844;2023-10-31T06:59:05;3.10;;;1.45;;
50789;SDS011;37287;47.554;7.844;2023-10-31T07:01:32;5.22;;;2.20;;
50789;SDS011;37287;47.554;7.844;2023-10-31T07:04:17;2.80;;;1.70;;
50789;SDS011;37287;47.554;7.844;2023-10-31T07:06:43;1.80;;;1.45;;
50789;SDS011;37287;47.554;7.844;2023-10-31T07:09:10;3.05;;;1.55;;
50789;SDS011;37287;47.554;7.844;2023-10-31T07:11:38;2.63;;;1.48;;
50789;SDS011;37287;47.554;7.844;2023-10-31T07:14:05;2.78;;;1.33;;
50789;SDS011;37287;47.554;7.844;2023-10-31T07:16:32;3.40;;;1.55;;
50789;SDS011;37287;47.554;7.844;2023-10-31T07:19:03;2.00;;;1.20;;
50789;SDS011;37287;47.554;7.844;2023-10-31T07:21:29;1.98;;;1.15;;
50789;SDS011;37287;47.554;7.844;2023-10-31T07:23:56;1.77;;;1.13;;
50789;SDS011;37287;47.554;7.844;2023-10-31T07:26:25;2.47;;;1.30;;
50789;SDS011;37287;47.554;7.844;2023-10-31T07:28:53;1.40;;;1.00;;
50789;SDS011;37287;47.554;7.844;2023-10-31T07:31:20;1.38;;;0.95;;
50789;SDS011;37287;47.554;7.844;2023-10-31T07:33:49;2.53;;;1.10;;
50789;SDS011;37287;47.554;7.844;2023-10-31T07:36:16;1.25;;;0.75;;
50789;SDS011;37287;47.554;7.844;2023-10-31T07:38:42;3.13;;;1.20;;
50789;SDS011;37287;47.554;7.844;2023-10-31T07:41:11;1.90;;;1.25;;
50789;SDS011;37287;47.554;7.844;2023-10-31T07:43:42;2.97;;;0.98;;
50789;SDS011;37287;47.554;7.844;2023-10-31T07:46:09;3.50;;;1.17;;
50789;SDS011;37287;47.554;7.844;2023-10-31T07:48:35;2.85;;;1.00;;
50789;SDS011;37287;47.554;7.844;2023-10-31T07:51:02;4.47;;;1.30;;
50789;SDS011;37287;47.554;7.844;2023-10-31T07:53:31;2.33;;;1.25;;
50789;SDS011;37287;47.554;7.844;2023-10-31T07:55:59;0.88;;;0.88;;
50789;SDS011;37287;47.554;7.844;2023-10-31T07:58:26;1.70;;;1.05;;
50789;SDS011;37287;47.554;7.844;2023-10-31T08:00:52;3.08;;;1.45;;
50789;SDS011;37287;47.554;7.844;2023-10-31T08:03:21;2.83;;;1.73;;
50789;SDS011;37287;47.554;7.844;2023-10-31T08:05:48;3.95;;;1.80;;
50789;SDS011;37287;47.554;7.844;2023-10-31T08:08:14;1.58;;;1.38;;
50789;SDS011;37287;47.554;7.844;2023-10-31T08:10:54;2.53;;;1.15;;
50789;SDS011;37287;47.554;7.844;2023-10-31T08:13:20;1.88;;;1.40;;
50789;SDS011;37287;47.554;7.844;2023-10-31T08:15:47;1.95;;;1.45;;
50789;SDS011;37287;47.554;7.844;2023-10-31T08:18:16;1.30;;;1.20;;
50789;SDS011;37287;47.554;7.844;2023-10-31T08:20:42;1.60;;;1.30;;
50789;SDS011;37287;47.554;7.844;2023-10-31T08:23:12;2.80;;;1.35;;
50789;SDS011;37287;47.554;7.844;2023-10-31T08:25:41;3.72;;;1.45;;
50789;SDS011;37287;47.554;7.844;2023-10-31T08:28:08;3.38;;;1.40;;
50789;SDS011;37287;47.554;7.844;2023-10-31T08:30:34;2.15;;;1.40;;
50789;SDS011;37287;47.554;7.844;2023-10-31T08:33:01;2.88;;;1.40;;
50789;SDS011;37287;47.554;7.844;2023-10-31T08:35:28;1.92;;;1.35;;
50789;SDS011;37287;47.554;7.844;2023-10-31T08:37:55;2.25;;;1.55;;
50789;SDS011;37287;47.554;7.844;2023-10-31T08:40:24;3.60;;;1.83;;
50789;SDS011;37287;47.554;7.844;2023-10-31T08:42:51;5.35;;;1.77;;
50789;SDS011;37287;47.554;7.844;2023-10-31T08:45:18;1.35;;;1.25;;
50789;SDS011;37287;47.554;7.844;2023-10-31T08:47:46;4.15;;;1.42;;
50789;SDS011;37287;47.554;7.844;2023-10-31T08:50:17;3.25;;;1.20;;
50789;SDS011;37287;47.554;7.844;2023-10-31T08:52:44;2.15;;;1.25;;
50789;SDS011;37287;47.554;7.844;2023-10-31T08:55:10;3.67;;;1.45;;
50789;SDS011;37287;47.554;7.844;2023-10-31T08:57:37;3.20;;;1.48;;
50789;SDS011;37287;47.554;7.844;2023-10-31T09:00:04;2.65;;;1.13;;
50789;SDS011;37287;47.554;7.844;2023-10-31T09:02:33;1.83;;;1.35;;
50789;SDS011;37287;47.554;7.844;2023-10-31T09:05:00;3.50;;;1.40;;
50789;SDS011;37287;47.554;7.844;2023-10-31T09:07:26;3.60;;;1.42;;
50789;SDS011;37287;47.554;7.844;2023-10-31T09:09:53;3.15;;;1.45;;
50789;SDS011;37287;47.554;7.844;2023-10-31T09:12:20;4.50;;;1.63;;
50789;SDS011;37287;47.554;7.844;2023-10-31T09:14:51;2.58;;;1.60;;
50789;SDS011;37287;47.554;7.844;2023-10-31T09:17:20;3.25;;;1.45;;
50789;SDS011;37287;47.554;7.844;2023-10-31T09:19:47;2.75;;;1.20;;
50789;SDS011;37287;47.554;7.844;2023-10-31T09:22:13;2.10;;;1.25;;
50789;SDS011;37287;47.554;7.844;2023-10-31T09:24:42;1.42;;;1.00;;
50789;SDS011;37287;47.554;7.844;2023-10-31T09:27:11;1.10;;;1.00;;
50789;SDS011;37287;47.554;7.844;2023-10-31T09:29:38;1.30;;;0.80;;
50789;SDS011;37287;47.554;7.844;2023-10-31T09:32:05;3.42;;;1.10;;
50789;SDS011;37287;47.554;7.844;2023-10-31T09:34:32;2.55;;;1.00;;
50789;SDS011;37287;47.554;7.844;2023-10-31T09:36:59;2.50;;;0.80;;
50789;SDS011;37287;47.554;7.844;2023-10-31T09:39:26;1.65;;;0.90;;
50789;SDS011;37287;47.554;7.844;2023-10-31T09:41:54;2.67;;;1.13;;
50789;SDS011;37287;47.554;7.844;2023-10-31T09:44:21;5.03;;;1.10;;
50789;SDS011;37287;47.554;7.844;2023-10-31T09:46:48;3.25;;;1.05;;
50789;SDS011;37287;47.554;7.844;2023-10-31T09:49:15;2.40;;;1.10;;
50789;SDS011;37287;47.554;7.844;2023-10-31T09:51:42;5.53;;;1.00;;
50789;SDS011;37287;47.554;7.844;2023-10-31T09:54:16;1.42;;;0.80;;
50789;SDS011;37287;47.554;7.844;2023-10-31T09:56:43;1.20;;;0.82;;
50789;SDS011;37287;47.554;7.844;2023-10-31T09:59:10;2.30;;;0.77;;
50789;SDS011;37287;47.554;7.844;2023-10-31T10:01:37;2.90;;;1.08;;
50789;SDS011;37287;47.554;7.844;2023-10-31T10:04:04;2.70;;;1.05;;
50789;SDS011;37287;47.554;7.844;2023-10-31T10:06:32;1.38;;;1.00;;
50789;SDS011;37287;47.554;7.844;2023-10-31T10:09:00;2.17;;;1.00;;
50789;SDS011;37287;47.554;7.844;2023-10-31T10:11:32;2.05;;;1.00;;
50789;SDS011;37287;47.554;7.844;2023-10-31T10:14:00;1.15;;;0.80;;
50789;SDS011;37287;47.554;7.844;2023-10-31T10:16:32;1.45;;;0.88;;
50789;SDS011;37287;47.554;7.844;2023-10-31T10:19:16;1.30;;;0.65;;
50789;SDS011;37287;47.554;7.844;2023-10-31T10:21:49;1.13;;;0.70;;
50789;SDS011;37287;47.554;7.844;2023-10-31T10:24:19;1.98;;;0.90;;
50789;SDS011;37287;47.554;7.844;2023-10-31T10:26:47;2.13;;;0.90;;
50789;SDS011;37287;47.554;7.844;2023-10-31T10:29:16;2.42;;;0.75;;
50789;SDS011;37287;47.554;7.844;2023-10-31T10:31:43;1.15;;;0.70;;
50789;SDS011;37287;47.554;7.844;2023-10-31T10:34:16;1.60;;;1.10;;
50789;SDS011;37287;47.554;7.844;2023-10-31T10:36:47;1.52;;;0.80;;
50789;SDS011;37287;47.554;7.844;2023-10-31T10:39:19;2.35;;;1.00;;
50789;SDS011;37287;47.554;7.844;2023-10-31T10:41:55;3.42;;;1.05;;
50789;SDS011;37287;47.554;7.844;2023-10-31T10:44:32;2.75;;;0.98;;
50789;SDS011;37287;47.554;7.844;2023-10-31T10:47:06;2.05;;;0.98;;
50789;SDS011;37287;47.554;7.844;2023-10-31T10:49:35;3.97;;;0.90;;
50789;SDS011;37287;47.554;7.844;2023-10-31T10:54:52;1.80;;;0.88;;
50789;SDS011;37287;47.554;7.844;2023-10-31T10:57:42;3.60;;;1.10;;
50789;SDS011;37287;47.554;7.844;2023-10-31T11:00:22;0.80;;;0.80;;
50789;SDS011;37287;47.554;7.844;2023-10-31T11:02:52;1.73;;;1.10;;
50789;SDS011;37287;47.554;7.844;2023-10-31T11:05:20;1.85;;;0.98;;
50789;SDS011;37287;47.554;7.844;2023-10-31T11:07:47;6.57;;;4.40;;
50789;SDS011;37287;47.554;7.844;2023-10-31T11:10:16;2.97;;;1.60;;
50789;SDS011;37287;47.554;7.844;2023-10-31T11:12:43;1.13;;;1.10;;
50789;SDS011;37287;47.554;7.844;2023-10-31T11:15:13;4.15;;;1.42;;
50789;SDS011;37287;47.554;7.844;2023-10-31T11:17:42;1.27;;;1.02;;
50789;SDS011;37287;47.554;7.844;2023-10-31T11:20:11;2.45;;;1.30;;
50789;SDS011;37287;47.554;7.844;2023-10-31T11:22:45;2.97;;;1.30;;
50789;SDS011;37287;47.554;7.844;2023-10-31T11:25:18;1.98;;;1.25;;
50789;SDS011;37287;47.554;7.844;2023-10-31T11:28:11;3.15;;;1.55;;
50789;SDS011;37287;47.554;7.844;2023-10-31T11:30:45;2.10;;;1.60;;
50789;SDS011;37287;47.554;7.844;2023-10-31T11:33:14;2.40;;;1.65;;
50789;SDS011;37287;47.554;7.844;2023-10-31T11:35:51;3.53;;;1.75;;
50789;SDS011;37287;47.554;7.844;2023-10-31T11:38:31;2.72;;;1.52;;
50789;SDS011;37287;47.554;7.844;2023-10-31T11:41:02;1.95;;;1.60;;
50789;SDS011;37287;47.554;7.844;2023-10-31T11:46:23;1.42;;;1.02;;
50789;SDS011;37287;47.554;7.844;2023-10-31T11:48:53;1.67;;;1.20;;
50789;SDS011;37287;47.554;7.844;2023-10-31T11:51:24;2.65;;;1.40;;
50789;SDS011;37287;47.554;7.844;2023-10-31T11:53:51;2.78;;;1.20;;
50789;SDS011;37287;47.554;7.844;2023-10-31T11:56:20;2.33;;;1.10;;
50789;SDS011;37287;47.554;7.844;2023-10-31T11:59:01;2.05;;;1.10;;
50789;SDS011;37287;47.554;7.844;2023-10-31T12:01:29;2.10;;;1.25;;
50789;SDS011;37287;47.554;7.844;2023-10-31T12:03:56;1.83;;;1.17;;
50789;SDS011;37287;47.554;7.844;2023-10-31T12:06:23;1.48;;;0.95;;
50789;SDS011;37287;47.554;7.844;2023-10-31T12:08:58;1.60;;;0.98;;
50789;SDS011;37287;47.554;7.844;2023-10-31T12:11:26;2.72;;;1.30;;
50789;SDS011;37287;47.554;7.844;2023-10-31T12:13:57;2.03;;;1.23;;
50789;SDS011;37287;47.554;7.844;2023-10-31T12:16:49;2.28;;;1.38;;
50789;SDS011;37287;47.554;7.844;2023-10-31T12:19:16;2.78;;;1.48;;
50789;SDS011;37287;47.554;7.844;2023-10-31T12:21:47;2.60;;;1.40;;
50789;SDS011;37287;47.554;7.844;2023-10-31T12:24:15;3.70;;;1.40;;
50789;SDS011;37287;47.554;7.844;2023-10-31T12:26:44;5.40;;;1.85;;
50789;SDS011;37287;47.554;7.844;2023-10-31T12:31:47;3.25;;;1.70;;
50789;SDS011;37287;47.554;7.844;2023-10-31T12:34:21;1.48;;;1.38;;
50789;SDS011;37287;47.554;7.844;2023-10-31T12:36:53;1.70;;;1.40;;
50789;SDS011;37287;47.554;7.844;2023-10-31T12:39:22;1.67;;;1.40;;
50789;SDS011;37287;47.554;7.844;2023-10-31T12:41:50;1.85;;;1.40;;
50789;SDS011;37287;47.554;7.844;2023-10-31T12:44:19;1.38;;;1.20;;
50789;SDS011;37287;47.554;7.844;2023-10-31T12:46:51;1.48;;;1.15;;
50789;SDS011;37287;47.554;7.844;2023-10-31T12:49:19;1.45;;;1.10;;
50789;SDS011;37287;47.554;7.844;2023-10-31T12:54:29;1.10;;;1.00;;
50789;SDS011;37287;47.554;7.844;2023-10-31T12:56:59;1.52;;;0.93;;
50789;SDS011;37287;47.554;7.844;2023-10-31T12:59:27;1.30;;;0.93;;
50789;SDS011;37287;47.554;7.844;2023-10-31T13:01:54;1.90;;;1.00;;
50789;SDS011;37287;47.554;7.844;2023-10-31T13:04:27;1.15;;;1.02;;
50789;SDS011;37287;47.554;7.844;2023-10-31T13:06:56;0.70;;;0.70;;
50789;SDS011;37287;47.554;7.844;2023-10-31T13:09:32;1.20;;;0.80;;
50789;SDS011;37287;47.554;7.844;2023-10-31T13:12:02;1.08;;;0.70;;
50789;SDS011;37287;47.554;7.844;2023-10-31T13:14:36;2.70;;;1.08;;
50789;SDS011;37287;47.554;7.844;2023-10-31T13:17:05;0.60;;;0.60;;
50789;SDS011;37287;47.554;7.844;2023-10-31T13:19:36;2.78;;;0.80;;
50789;SDS011;37287;47.554;7.844;2023-10-31T13:22:03;2.42;;;1.00;;
50789;SDS011;37287;47.554;7.844;2023-10-31T13:24:29;1.05;;;0.80;;
50789;SDS011;37287;47.554;7.844;2023-10-31T13:26:57;1.40;;;0.60;;
50789;SDS011;37287;47.554;7.844;2023-10-31T13:29:25;1.80;;;0.75;;
50789;SDS011;37287;47.554;7.844;2023-10-31T13:31:54;0.93;;;0.90;;
50789;SDS011;37287;47.554;7.844;2023-10-31T13:34:21;1.40;;;1.20;;
50789;SDS011;37287;47.554;7.844;2023-10-31T13:36:52;1.65;;;1.27;;
50789;SDS011;37287;47.554;7.844;2023-10-31T13:39:20;1.00;;;0.90;;
50789;SDS011;37287;47.554;7.844;2023-10-31T13:41:49;1.27;;;0.70;;
50789;SDS011;37287;47.554;7.844;2023-10-31T13:44:17;0.77;;;0.70;;
50789;SDS011;37287;47.554;7.844;2023-10-31T13:46:43;2.65;;;1.15;;
50789;SDS011;37287;47.554;7.844;2023-10-31T13:49:10;2.80;;;1.00;;
50789;SDS011;37287;47.554;7.844;2023-10-31T13:51:38;1.60;;;1.00;;
50789;SDS011;37287;47.554;7.844;2023-10-31T13:54:05;1.63;;;0.70;;
50789;SDS011;37287;47.554;7.844;2023-10-31T13:56:32;0.80;;;0.80;;
50789;SDS011;37287;47.554;7.844;2023-10-31T13:59:01;1.90;;;1.40;;
50789;SDS011;37287;47.554;7.844;2023-10-31T14:01:28;1.90;;;1.40;;
50789;SDS011;37287;47.554;7.844;2023-10-31T14:03:55;2.40;;;1.27;;
50789;SDS011;37287;47.554;7.844;2023-10-31T14:06:23;1.88;;;1.40;;
50789;SDS011;37287;47.554;7.844;2023-10-31T14:08:56;1.35;;;1.25;;
50789;SDS011;37287;47.554;7.844;2023-10-31T14:11:24;1.17;;;1.08;;
50789;SDS011;37287;47.554;7.844;2023-10-31T14:13:52;2.00;;;1.00;;
50789;SDS011;37287;47.554;7.844;2023-10-31T14:16:19;0.93;;;0.90;;
50789;SDS011;37287;47.554;7.844;2023-10-31T14:18:45;1.23;;;0.85;;
50789;SDS011;37287;47.554;7.844;2023-10-31T14:21:20;0.93;;;0.80;;
50789;SDS011;37287;47.554;7.844;2023-10-31T14:23:46;1.63;;;0.82;;
50789;SDS011;37287;47.554;7.844;2023-10-31T14:26:26;0.55;;;0.55;;
50789;SDS011;37287;47.554;7.844;2023-10-31T14:28:59;2.50;;;0.60;;
50789;SDS011;37287;47.554;7.844;2023-10-31T14:31:26;0.50;;;0.50;;
50789;SDS011;37287;47.554;7.844;2023-10-31T14:33:53;0.93;;;0.70;;
50789;SDS011;37287;47.554;7.844;2023-10-31T14:36:19;0.60;;;0.55;;
50789;SDS011;37287;47.554;7.844;2023-10-31T14:38:46;0.57;;;0.57;;
50789;SDS011;37287;47.554;7.844;2023-10-31T14:41:16;2.33;;;0.70;;
50789;SDS011;37287;47.554;7.844;2023-10-31T14:43:43;1.35;;;0.70;;
50789;SDS011;37287;47.554;7.844;2023-10-31T14:46:09;0.40;;;0.40;;
50789;SDS011;37287;47.554;7.844;2023-10-31T14:48:36;0.43;;;0.40;;
50789;SDS011;37287;47.554;7.844;2023-10-31T14:51:05;0.47;;;0.30;;
50789;SDS011;37287;47.554;7.844;2023-10-31T14:53:35;1.00;;;0.52;;
50789;SDS011;37287;47.554;7.844;2023-10-31T14:56:02;0.75;;;0.52;;
50789;SDS011;37287;47.554;7.844;2023-10-31T14:58:31;0.60;;;0.60;;
50789;SDS011;37287;47.554;7.844;2023-10-31T15:00:58;1.10;;;1.00;;
50789;SDS011;37287;47.554;7.844;2023-10-31T15:03:24;0.98;;;0.90;;
50789;SDS011;37287;47.554;7.844;2023-10-31T15:05:51;0.50;;;0.50;;
50789;SDS011;37287;47.554;7.844;2023-10-31T15:08:18;0.40;;;0.40;;